Conquest, Canada
Current Conditions -  °F | °C
As of 6:00 PM on Friday 26 Dec 2014 (Local Time) from CYXE Reporting Station
Light Snow Light Snow  
Wind Chill: -4°   Ceiling: 1700
Heat Index: 10°   Visibility: 6mi
Dew Point:   Wind: 12mph
Humidity: 85%   Direction: 240°WSW
Pressure: 30.08"   Gusts: NA
Location:  51.53°N, 107.25°W
Report Text: CYXE 270000Z 24010KT 6SM -SN OVC017 M12/M14 A3008 RMK SC8 SLP235
Loading
Personal Weather Stations






























Interactive Weather Map New forecast layout! Learn more

10-Day Weather Forecast

Advertisements
Track Severe Weather on mobile